• Join FlightAware (Why Join?)
  • Login
  • US Flag 
03:22AM EDT


 

Airport Tracker/Info


-or-


 

Live Flight TrackerFlight Track Log ✈ GLA63P ✈ 02-May-2013 ✈ KPRC - KCNY

Flight Track Log - Related Links

Times and Time Zones

All times are in EDT time to prevent confusion due to time zone crossing. See the GLA63P flight status page for this flight to view local times or setup timezone preferences in your user account.

Time Position Orientation Groundspeed Altitude Reporting Facility
EDT Latitude Longitude Course Direction KTS MPH feet Rate Location/Type
08:27AM 34.6825 -112.4411 289° West 160 184 7,800  Level Los Angeles Center
08:28AM 34.6956 -112.4869 289° West 170 196 10,200 2,160 Climbing Albuquerque Center
08:29AM 34.7353 -112.4750 14° North 152 175 12,300 1,920 Climbing Albuquerque Center
08:30AM 34.7756 -112.4733 North 147 169 14,100 1,800 Climbing Albuquerque Center
08:31AM 34.8181 -112.4769 356° North 152 175 16,000 1,680 Climbing Albuquerque Center
08:32AM 34.8606 -112.4683 North 152 175 17,500 1,260 Climbing Albuquerque Center
08:33AM 34.9067 -112.4647 North 162 186 18,600 1,080 Climbing Albuquerque Center
08:34AM 34.9528 -112.4569 North 166 191 19,700 1,140 Climbing Albuquerque Center
08:35AM 35.0039 -112.4483 North 179 206 21,000 1,140 Climbing Albuquerque Center
08:36AM 35.0547 -112.4369 10° North 185 213 22,100 1,020 Climbing Albuquerque Center
08:37AM 35.1069 -112.4289 North 189 217 23,100 840 Climbing Albuquerque Center
08:38AM 35.1603 -112.4222 North 192 221 23,900 420 Climbing Albuquerque Center
08:39AM 35.2297 -112.4292 355° North 210 242 24,000  Climbing Albuquerque Center
08:40AM 35.2897 -112.4478 346° North 222 255 24,000  Level Albuquerque Center
08:41AM 35.3536 -112.4553 355° North 231 266 24,000  Level Albuquerque Center
08:42AM 35.4058 -112.4408 13° North 240 276 24,000  Level Los Angeles Center
08:43AM 35.4731 -112.4247 11° North 246 283 24,000  Level Los Angeles Center
08:44AM 35.5392 -112.4100 10° North 244 281 24,100  Climbing Los Angeles Center
08:45AM 35.6200 -112.3908 11° North 247 284 24,000 -60 Descending Los Angeles Center
08:46AM 35.6864 -112.3647 18° North 250 288 24,000  Level Los Angeles Center
08:47AM 35.7347 -112.2919 51° Northeast 274 315 24,000  Level Los Angeles Center
08:48AM 35.7892 -112.2369 39° Northeast 259 298 24,100  Climbing Los Angeles Center
08:49AM 35.8531 -112.2050 22° Northeast 250 288 24,100  Level Los Angeles Center
08:50AM 35.9181 -112.1844 14° North 243 280 24,100 -60 Level Los Angeles Center
08:51AM 35.9786 -112.1414 30° Northeast 251 289 24,000 -60 Descending Los Angeles Center
08:52AM 36.0339 -112.0886 38° Northeast 251 289 24,000  Level Los Angeles Center
08:53AM 36.0961 -112.0533 25° Northeast 246 283 24,000  Level Los Angeles Center
08:54AM 36.1494 -111.9906 44° Northeast 260 299 24,000  Level Los Angeles Center
08:55AM 36.2008 -111.9292 44° Northeast 262 302 24,000  Level Los Angeles Center
08:56AM 36.2578 -111.8761 37° Northeast 258 297 24,000  Level Los Angeles Center
08:57AM 36.2808 -111.8592 31° Northeast 254 292 24,000  Level Denver Center
08:58AM 36.3431 -111.8300 21° North 246 283 24,000  Level Denver Center
08:59AM 36.4044 -111.8097 15° North 232 267 24,000  Level Denver Center
09:00AM 36.4614 -111.7575 36° Northeast 253 291 24,000  Level Denver Center
09:01AM 36.5325 -111.7019 32° Northeast 253 291 24,000  Level Denver Center
09:02AM 36.5928 -111.6681 24° Northeast 245 282 24,000  Level Denver Center
09:03AM 36.6542 -111.6347 24° Northeast 242 278 24,000  Level Denver Center
09:04AM 36.7086 -111.5833 37° Northeast 245 282 24,000  Level Denver Center
09:05AM 36.7631 -111.5297 38° Northeast 249 287 24,000  Level Denver Center
09:06AM 36.8242 -111.4956 24° Northeast 245 282 24,000  Level Denver Center
09:07AM 36.8892 -111.4736 15° North 245 282 24,000  Level Denver Center
09:08AM 36.9467 -111.4289 32° Northeast 247 284 24,000  Level Denver Center
09:09AM 37.0053 -111.3842 31° Northeast 248 285 24,000 -60 Level Denver Center
09:10AM 37.0650 -111.3586 19° North 233 268 23,900  Descending Denver Center
09:11AM 37.1258 -111.3322 19° North 230 265 24,000 60 Climbing Denver Center
09:12AM 37.1997 -111.3036 17° North 233 268 24,100  Climbing Denver Center
09:13AM 37.2586 -111.2564 33° Northeast 251 289 24,100 -180 Level Denver Center
09:14AM 37.3164 -111.2058 35° Northeast 254 292 23,800 -420 Descending Denver Center
09:15AM 37.3806 -111.1664 26° Northeast 256 295 23,300 -360 Descending Denver Center
09:16AM 37.4450 -111.1422 17° North 241 277 23,100 -180 Descending Denver Center
09:17AM 37.5203 -111.1311 North 228 262 23,000  Descending Denver Center
09:18AM 37.5800 -111.1108 15° North 226 260 23,100  Climbing Denver Center
09:19AM 37.6392 -111.0814 22° Northeast 229 264 23,100 -60 Level Denver Center
09:20AM 37.6983 -111.0547 20° North 227 261 23,000 -60 Descending Denver Center
09:21AM 37.7564 -110.9881 42° Northeast 245 282 23,000  Level Denver Center
09:22AM 37.7958 -110.9186 54° Northeast 245 282 23,000  Level Denver Center
09:23AM 37.8381 -110.8500 52° Northeast 247 284 23,100  Climbing Denver Center
09:24AM 37.8786 -110.7828 53° Northeast 242 278 23,000 -60 Descending Denver Center
09:25AM 37.9228 -110.7153 50° Northeast 246 283 23,000 -60 Level Denver Center
09:26AM 37.9681 -110.6539 47° Northeast 239 275 22,900 -780 Descending Denver Center
09:27AM 38.0167 -110.5836 49° Northeast 247 284 21,500 -1,680 Descending Denver Center
09:28AM 38.0578 -110.5189 51° Northeast 247 284 19,600 -1,860 Descending Denver Center
09:29AM 38.1008 -110.4617 46° Northeast 239 275 17,800 -1,560 Descending Denver Center
09:30AM 38.1508 -110.3986 45° Northeast 228 262 16,500 -960 Descending Denver Center
09:31AM 38.1872 -110.3569 42° Northeast 223 257 15,900 -780 Descending Denver Center
09:32AM 38.2497 -110.2975 37° Northeast 219 252 15,000 -840 Descending Denver Center
09:33AM 38.2986 -110.2558 34° Northeast 220 253 14,200 -840 Descending Denver Center